Time;durP1;ratioP1;P1;durP2;ratioP2;P2;SDS_P1;SDS_P2;PMS_P1;PMS_P2;Temp;Humidity;BMP_temperature;BMP_pressure;BME280_temperature;BME280_humidity;BME280_pressure;Samples;Min_cycle;Max_cycle;Signal;HPM_P1;HPM_P2
2023/09/03 00:00:43;;;;;;;12.93;11.75;;;;;22.50;101376.00;;;;2098097;28;21005;-69
2023/09/03 00:01:44;;;;;;;13.15;11.85;;;;;22.50;101376.00;;;;2089239;28;20228;-69
2023/09/03 00:02:44;;;;;;;14.57;13.17;;;;;22.50;101377.00;;;;2095813;28;20234;-69
2023/09/03 00:03:45;;;;;;;11.97;10.87;;;;;22.50;101316.00;;;;2094359;28;20454;-69
2023/09/03 00:04:45;;;;;;;13.03;11.70;;;;;22.50;101378.00;;;;2101826;28;20276;-69
2023/09/03 00:05:49;;;;;;;14.23;12.83;;;;;22.50;101380.00;;;;2100591;28;20216;-69
2023/09/03 00:06:49;;;;;;;13.23;11.93;;;;;22.50;101375.00;;;;2093467;28;20787;-69
2023/09/03 00:07:50;;;;;;;13.50;12.10;;;;;22.50;101376.00;;;;2095814;28;20219;-69
2023/09/03 00:08:51;;;;;;;13.93;11.67;;;;;22.50;101376.00;;;;2103677;28;20246;-69
2023/09/03 00:09:51;;;;;;;12.67;11.47;;;;;22.50;101377.00;;;;2103016;28;20446;-69
2023/09/03 00:10:52;;;;;;;13.93;12.53;;;;;22.50;101379.00;;;;2097416;28;20212;-69
2023/09/03 00:11:52;;;;;;;12.60;11.40;;;;;22.50;101342.00;;;;2090474;28;20222;-69
2023/09/03 00:12:53;;;;;;;13.27;12.07;;;;;22.50;101366.00;;;;2099702;28;20219;-69
2023/09/03 00:13:54;;;;;;;13.97;12.40;;;;;22.50;101368.00;;;;2090086;28;20261;-69
2023/09/03 00:14:54;;;;;;;13.73;12.50;;;;;22.50;101364.00;;;;2079180;28;20728;-69
2023/09/03 00:15:54;;;;;;;12.37;11.17;;;;;22.50;101367.00;;;;2087761;28;20236;-69
2023/09/03 00:16:55;;;;;;;12.60;11.40;;;;;22.50;101368.00;;;;2092709;28;20688;-69
2023/09/03 00:17:55;;;;;;;12.30;11.10;;;;;22.50;101370.00;;;;2096493;28;21125;-69
2023/09/03 00:18:55;;;;;;;12.47;11.33;;;;;22.50;101369.00;;;;2100228;28;22105;-69
2023/09/03 00:19:56;;;;;;;11.80;10.70;;;;;22.50;101368.00;;;;2101165;28;20717;-69
2023/09/03 00:20:56;;;;;;;13.93;12.43;;;;;22.50;101369.00;;;;2103423;28;20726;-69
2023/09/03 00:21:57;;;;;;;13.13;11.83;;;;;22.50;101366.00;;;;2087209;28;21074;-69
2023/09/03 00:22:57;;;;;;;12.33;11.13;;;;;22.50;101359.00;;;;2103759;28;20223;-69
2023/09/03 00:23:58;;;;;;;12.33;11.10;;;;;22.50;101376.00;;;;2090848;28;20213;-69
2023/09/03 00:24:58;;;;;;;11.93;10.83;;;;;22.50;101372.00;;;;2088007;28;20232;-69
2023/09/03 00:25:59;;;;;;;13.50;12.10;;;;;22.50;101361.00;;;;2096512;28;20219;-69
2023/09/03 00:26:59;;;;;;;13.30;12.00;;;;;22.50;101338.00;;;;2091257;28;20208;-69
2023/09/03 00:27:59;;;;;;;11.80;10.80;;;;;22.50;101365.00;;;;2097349;28;20247;-69
2023/09/03 00:29:00;;;;;;;11.50;10.40;;;;;22.50;101362.00;;;;2096733;28;20680;-69
2023/09/03 00:30:00;;;;;;;12.77;11.00;;;;;22.50;101373.00;;;;2086726;28;20591;-69
2023/09/03 00:31:10;;;;;;;12.30;11.10;;;;;22.50;101365.00;;;;2094293;28;20655;-69
2023/09/03 00:32:10;;;;;;;12.63;10.65;;;;;22.50;101367.00;;;;2082525;28;20704;-69
2023/09/03 00:33:10;;;;;;;12.03;10.93;;;;;22.50;101362.00;;;;2102937;28;20219;-69
2023/09/03 00:34:11;;;;;;;13.60;12.20;;;;;22.50;101366.00;;;;2096239;28;20311;-69
2023/09/03 00:35:11;;;;;;;12.10;10.90;;;;;22.50;101356.00;;;;2100019;28;20226;-69
2023/09/03 00:36:14;;;;;;;12.30;11.10;;;;;22.50;101350.00;;;;2098404;28;20223;-69
2023/09/03 00:37:14;;;;;;;11.50;10.40;;;;;22.50;101350.00;;;;2096642;28;20223;-69
2023/09/03 00:38:14;;;;;;;12.13;11.03;;;;;22.50;101359.00;;;;2102950;28;20211;-69
2023/09/03 00:39:15;;;;;;;11.60;10.50;;;;;22.50;101355.00;;;;2098654;28;20211;-69
2023/09/03 00:40:15;;;;;;;14.13;12.20;;;;;22.50;101355.00;;;;2099714;28;20232;-69
2023/09/03 00:41:16;;;;;;;12.80;11.07;;;;;22.50;101362.00;;;;2091961;28;20281;-69
2023/09/03 00:42:16;;;;;;;12.70;11.40;;;;;22.40;101352.00;;;;2097128;28;20259;-69
2023/09/03 00:43:16;;;;;;;11.93;10.73;;;;;22.50;101362.00;;;;2101297;28;20638;-69
2023/09/03 00:44:17;;;;;;;11.83;10.83;;;;;22.50;101360.00;;;;2096768;28;20894;-69
2023/09/03 00:45:17;;;;;;;11.73;10.53;;;;;22.40;101367.00;;;;2097698;28;20786;-69
2023/09/03 00:46:17;;;;;;;11.60;10.40;;;;;22.40;101362.00;;;;2088867;28;20685;-69
2023/09/03 00:47:18;;;;;;;12.17;10.87;;;;;22.40;101366.00;;;;2104363;28;20768;-69
2023/09/03 00:48:20;;;;;;;11.60;10.50;;;;;22.40;101371.00;;;;2099084;28;20239;-69
2023/09/03 00:49:21;;;;;;;11.65;10.60;;;;;22.50;101367.00;;;;2087971;28;20237;-69
2023/09/03 00:50:21;;;;;;;11.05;9.77;;;;;22.40;101370.00;;;;2088065;28;20217;-69
2023/09/03 00:51:22;;;;;;;11.40;10.40;;;;;22.40;101377.00;;;;2082007;28;20212;-69
2023/09/03 00:52:22;;;;;;;10.00;9.10;;;;;22.40;101367.00;;;;2087210;28;20205;-69
2023/09/03 00:53:23;;;;;;;11.87;10.67;;;;;22.40;101377.00;;;;2090828;28;20627;-69
2023/09/03 00:54:23;;;;;;;11.50;10.40;;;;;22.40;101373.00;;;;2086718;28;20262;-69
2023/09/03 00:55:24;;;;;;;11.10;10.10;;;;;22.40;101378.00;;;;2091148;28;20213;-69
2023/09/03 00:56:24;;;;;;;11.37;10.37;;;;;22.40;101395.00;;;;2068607;28;20300;-69
2023/09/03 00:57:24;;;;;;;11.27;10.17;;;;;22.40;101393.00;;;;2071338;28;20221;-69
2023/09/03 00:58:25;;;;;;;10.83;9.83;;;;;22.40;101336.00;;;;2088763;28;20271;-69
2023/09/03 00:59:25;;;;;;;11.87;10.67;;;;;22.40;101391.00;;;;2083789;28;20217;-69
2023/09/03 01:00:25;;;;;;;11.13;10.03;;;;;22.40;101394.00;;;;2070443;28;20210;-69
2023/09/03 01:01:27;;;;;;;12.50;11.20;;;;;22.40;101392.00;;;;2078418;28;20227;-69
2023/09/03 01:02:27;;;;;;;11.43;10.40;;;;;22.40;101405.00;;;;2100635;28;20226;-69
2023/09/03 01:03:28;;;;;;;11.40;10.27;;;;;22.40;101406.00;;;;2098081;28;20212;-68
2023/09/03 01:04:28;;;;;;;11.13;10.03;;;;;22.40;101408.00;;;;2101201;28;20239;-68
2023/09/03 01:05:28;;;;;;;11.70;10.60;;;;;22.40;101406.00;;;;2097957;28;20266;-69
2023/09/03 01:06:29;;;;;;;10.80;9.80;;;;;22.40;101403.00;;;;2085600;28;20226;-69
2023/09/03 01:07:30;;;;;;;11.63;10.47;;;;;22.40;101407.00;;;;2091520;28;20239;-69
2023/09/03 01:08:30;;;;;;;11.63;9.95;;;;;22.40;101407.00;;;;2089759;28;20933;-69
2023/09/03 01:09:31;;;;;;;11.83;10.63;;;;;22.40;101411.00;;;;2095360;28;20261;-69
2023/09/03 01:10:36;;;;;;;10.80;9.80;;;;;22.40;101345.00;;;;2080384;28;20229;-69
2023/09/03 01:11:49;;;;;;;11.77;10.68;;;;;22.40;101410.00;;;;2062021;28;20349;-69
2023/09/03 01:12:56;;;;;;;12.02;10.82;;;;;22.40;101392.00;;;;2086610;28;20217;-69
2023/09/03 01:13:57;;;;;;;10.75;9.75;;;;;22.40;101397.00;;;;2089379;28;20217;-69
2023/09/03 01:15:01;;;;;;;12.07;10.87;;;;;22.40;101399.00;;;;2085403;28;20299;-69
2023/09/03 01:16:04;;;;;;;11.30;10.15;;;;;22.40;101403.00;;;;2086396;28;20479;-69
2023/09/03 01:17:10;;;;;;;11.90;10.70;;;;;22.40;101406.00;;;;2073465;28;20255;-69
2023/09/03 01:18:18;;;;;;;12.02;10.90;;;;;22.40;101409.00;;;;2096539;28;20228;-69
2023/09/03 01:19:29;;;;;;;10.70;9.70;;;;;22.40;101400.00;;;;2083199;28;20267;-69
2023/09/03 01:20:35;;;;;;;10.63;9.63;;;;;22.40;101402.00;;;;2083071;28;20222;-69
2023/09/03 01:21:48;;;;;;;10.57;9.57;;;;;22.40;101403.00;;;;2066597;28;20400;-69
2023/09/03 01:23:09;;;;;;;11.38;10.27;;;;;22.40;101404.00;;;;2064207;28;20298;-69
2023/09/03 01:24:24;;;;;;;11.25;10.15;;;;;22.40;101396.00;;;;2083410;28;20314;-69
2023/09/03 01:25:55;;;;;;;10.80;9.85;;;;;22.40;101407.00;;;;2083758;28;20232;-69
2023/09/03 01:27:24;;;;;;;11.00;10.00;;;;;22.40;101404.00;;;;2076767;28;20301;-69
2023/09/03 01:28:31;;;;;;;10.75;9.75;;;;;22.40;101410.00;;;;2064705;28;20313;-69
2023/09/03 01:29:32;;;;;;;11.27;10.07;;;;;22.40;101408.00;;;;2095606;28;20263;-69
2023/09/03 01:30:32;;;;;;;10.90;9.90;;;;;22.40;101406.00;;;;2098731;28;20204;-69
2023/09/03 01:31:32;;;;;;;10.67;9.77;;;;;22.40;101377.00;;;;2077207;28;20227;-69
2023/09/03 01:32:34;;;;;;;11.17;10.07;;;;;22.30;101403.00;;;;2084593;28;20248;-69
2023/09/03 01:33:36;;;;;;;11.20;10.10;;;;;22.40;101387.00;;;;2086523;28;20242;-69
2023/09/03 01:34:37;;;;;;;10.73;9.60;;;;;22.40;101399.00;;;;2087140;28;20256;-69
2023/09/03 01:35:37;;;;;;;10.53;9.20;;;;;22.40;101398.00;;;;2087067;28;20561;-69
2023/09/03 01:36:37;;;;;;;10.90;9.90;;;;;22.40;101406.00;;;;2076890;28;20220;-69
2023/09/03 01:37:38;;;;;;;10.40;9.00;;;;;22.40;101392.00;;;;2075765;28;20217;-69
2023/09/03 01:38:39;;;;;;;10.77;9.30;;;;;22.40;101403.00;;;;2084362;28;20268;-69
2023/09/03 01:39:39;;;;;;;10.33;9.30;;;;;22.40;101398.00;;;;2100887;28;20216;-69
2023/09/03 01:40:39;;;;;;;11.40;10.30;;;;;22.40;101405.00;;;;2096114;28;20293;-69
2023/09/03 01:41:40;;;;;;;10.70;9.70;;;;;22.40;101398.00;;;;2089495;28;20210;-69
2023/09/03 01:42:40;;;;;;;10.27;9.27;;;;;22.40;101399.00;;;;2102199;28;20215;-69
2023/09/03 01:43:41;;;;;;;10.30;9.30;;;;;22.40;101396.00;;;;2100737;28;20219;-69
2023/09/03 01:44:42;;;;;;;11.02;9.93;;;;;22.40;101398.00;;;;2100517;28;20220;-69
2023/09/03 01:45:45;;;;;;;10.43;9.43;;;;;22.40;101405.00;;;;2079016;28;20224;-69
2023/09/03 01:46:49;;;;;;;10.50;9.48;;;;;22.40;101406.00;;;;2068640;28;20225;-69
2023/09/03 01:47:57;;;;;;;11.02;10.02;;;;;22.40;101412.00;;;;2090778;28;20212;-69
2023/09/03 01:49:35;;;;;;;10.60;9.60;;;;;22.40;101405.00;;;;2093001;28;20808;-69
2023/09/03 01:50:50;;;;;;;11.05;9.95;;;;;22.40;101375.00;;;;2086684;28;20728;-69
2023/09/03 01:52:19;;;;;;;10.77;9.73;;;;;22.40;101403.00;;;;2073420;28;20307;-69
2023/09/03 01:53:24;;;;;;;9.52;8.63;;;;;22.40;101400.00;;;;2084678;28;20216;-69
2023/09/03 01:54:28;;;;;;;10.88;9.85;;;;;22.40;101400.00;;;;2074228;28;20210;-69
2023/09/03 01:55:29;;;;;;;10.45;9.45;;;;;22.40;101396.00;;;;2087247;28;20604;-69
2023/09/03 01:56:29;;;;;;;10.40;9.40;;;;;22.40;101406.00;;;;2071595;28;20234;-69
2023/09/03 01:57:33;;;;;;;11.07;9.97;;;;;22.40;101357.00;;;;2089687;28;20237;-69
2023/09/03 01:58:34;;;;;;;10.23;9.30;;;;;22.40;101407.00;;;;2090248;28;20266;-69
2023/09/03 01:59:45;;;;;;;11.00;10.00;;;;;22.40;101406.00;;;;2094705;28;20214;-69
2023/09/03 02:00:46;;;;;;;11.35;10.35;;;;;22.40;101368.00;;;;2101939;28;20494;-69
2023/09/03 02:01:46;;;;;;;10.60;9.50;;;;;22.40;101404.00;;;;2072379;28;21671;-69
2023/09/03 02:02:48;;;;;;;9.80;8.90;;;;;22.40;101359.00;;;;2080558;28;20781;-69
2023/09/03 02:03:49;;;;;;;10.25;9.35;;;;;22.40;101406.00;;;;2088739;28;20263;-69
2023/09/03 02:04:50;;;;;;;10.90;9.75;;;;;22.40;101401.00;;;;2080244;28;20224;-69
2023/09/03 02:05:51;;;;;;;10.57;9.43;;;;;22.40;101406.00;;;;2067615;28;20583;-69
2023/09/03 02:06:51;;;;;;;9.50;8.60;;;;;22.40;101406.00;;;;2062409;28;20449;-69
2023/09/03 02:07:51;;;;;;;10.83;9.83;;;;;22.40;101409.00;;;;2080314;28;20303;-69
2023/09/03 02:08:52;;;;;;;11.37;9.43;;;;;22.40;101401.00;;;;2101961;28;20203;-69
2023/09/03 02:09:52;;;;;;;10.30;9.30;;;;;22.40;101405.00;;;;2097645;28;20240;-69
2023/09/03 02:10:52;;;;;;;10.17;9.17;;;;;22.40;101401.00;;;;2098365;28;20615;-69
2023/09/03 02:11:53;;;;;;;10.70;9.37;;;;;22.30;101404.00;;;;2087595;28;20539;-69
2023/09/03 02:12:53;;;;;;;10.97;9.97;;;;;22.30;101392.00;;;;2098302;28;20269;-69
2023/09/03 02:13:54;;;;;;;10.60;9.60;;;;;22.30;101396.00;;;;2097748;28;20230;-69
2023/09/03 02:14:54;;;;;;;10.10;9.10;;;;;22.40;101397.00;;;;2097661;28;20203;-69
2023/09/03 02:15:56;;;;;;;11.90;10.73;;;;;22.30;101401.00;;;;2097399;28;20598;-69
2023/09/03 02:16:56;;;;;;;10.20;9.15;;;;;22.40;101394.00;;;;2087203;28;20979;-69
2023/09/03 02:17:56;;;;;;;10.40;9.50;;;;;22.40;101390.00;;;;2098102;28;20212;-69
2023/09/03 02:18:57;;;;;;;11.70;9.83;;;;;22.30;101385.00;;;;2098789;28;20225;-69
2023/09/03 02:19:57;;;;;;;11.63;10.47;;;;;22.30;101359.00;;;;2092805;28;20282;-69
2023/09/03 02:20:57;;;;;;;11.40;10.20;;;;;22.30;101397.00;;;;2090179;28;20216;-69
2023/09/03 02:21:58;;;;;;;10.77;9.77;;;;;22.30;101393.00;;;;2089438;28;20634;-69
2023/09/03 02:22:58;;;;;;;11.30;10.20;;;;;22.30;101400.00;;;;2099216;28;20216;-69
2023/09/03 02:23:58;;;;;;;10.43;9.43;;;;;22.30;101395.00;;;;2097260;28;20216;-69
2023/09/03 02:24:59;;;;;;;10.63;9.63;;;;;22.40;101389.00;;;;2097720;28;20243;-69
2023/09/03 02:26:02;;;;;;;10.77;9.80;;;;;22.30;101396.00;;;;2103124;28;20207;-69
2023/09/03 02:27:02;;;;;;;10.80;9.75;;;;;22.40;101397.00;;;;2090871;28;20287;-69
2023/09/03 02:28:03;;;;;;;11.27;10.17;;;;;22.30;101392.00;;;;2097177;28;20569;-69
2023/09/03 02:29:03;;;;;;;10.37;9.47;;;;;22.40;101398.00;;;;2103749;28;20219;-69
2023/09/03 02:30:04;;;;;;;10.93;9.93;;;;;22.30;101396.00;;;;2099922;28;20212;-69
2023/09/03 02:31:05;;;;;;;11.90;10.73;;;;;22.30;101401.00;;;;2097372;28;20303;-69
2023/09/03 02:32:06;;;;;;;11.47;9.63;;;;;22.30;101401.00;;;;2085830;28;20857;-69
2023/09/03 02:33:06;;;;;;;11.00;9.60;;;;;22.30;101395.00;;;;2105111;28;20567;-69
2023/09/03 02:34:07;;;;;;;10.70;9.60;;;;;22.30;101299.00;;;;2102780;28;21024;-69
2023/09/03 02:35:07;;;;;;;11.20;10.20;;;;;22.30;101396.00;;;;2094673;28;20609;-69
2023/09/03 02:36:07;;;;;;;10.10;9.10;;;;;22.30;101407.00;;;;2089688;28;20327;-69
2023/09/03 02:37:08;;;;;;;11.67;10.57;;;;;22.30;101404.00;;;;2081861;28;20220;-69
2023/09/03 02:38:08;;;;;;;9.70;8.70;;;;;22.30;101346.00;;;;2102265;28;20688;-69
2023/09/03 02:39:08;;;;;;;9.77;8.97;;;;;22.30;101398.00;;;;2088381;28;20784;-69
2023/09/03 02:40:09;;;;;;;10.70;9.60;;;;;22.30;101391.00;;;;2090093;28;20740;-69
2023/09/03 02:41:09;;;;;;;11.57;10.47;;;;;22.30;101402.00;;;;2097770;28;22953;-69
2023/09/03 02:42:10;;;;;;;10.43;9.50;;;;;22.30;101406.00;;;;2094006;28;20215;-69
2023/09/03 02:43:11;;;;;;;11.03;10.03;;;;;22.30;101401.00;;;;2093028;28;20236;-69
2023/09/03 02:44:11;;;;;;;9.75;8.90;;;;;22.30;101404.00;;;;2093002;28;20224;-69
2023/09/03 02:45:11;;;;;;;9.67;8.80;;;;;22.30;101417.00;;;;2096075;28;20224;-69
2023/09/03 02:46:11;;;;;;;10.90;9.80;;;;;22.30;101412.00;;;;2086239;28;20255;-69
2023/09/03 02:47:12;;;;;;;9.87;8.87;;;;;22.30;101427.00;;;;2099168;28;20235;-69
2023/09/03 02:48:12;;;;;;;11.20;10.10;;;;;22.30;101427.00;;;;2100534;28;20296;-69
2023/09/03 02:49:13;;;;;;;12.07;10.87;;;;;22.30;101399.00;;;;2104599;28;20696;-69
2023/09/03 02:50:13;;;;;;;11.20;10.20;;;;;22.30;101429.00;;;;2097132;28;20239;-69
2023/09/03 02:51:13;;;;;;;10.60;9.50;;;;;22.30;101440.00;;;;2078521;28;20247;-69
2023/09/03 02:52:14;;;;;;;10.80;9.80;;;;;22.30;101448.00;;;;2087799;28;20213;-69
2023/09/03 02:53:15;;;;;;;10.77;9.67;;;;;22.30;101443.00;;;;2088276;28;20255;-69
2023/09/03 02:54:15;;;;;;;10.07;9.07;;;;;22.30;101448.00;;;;2093939;28;20451;-69
2023/09/03 02:55:15;;;;;;;10.40;9.40;;;;;22.30;101394.00;;;;2096513;28;20223;-69
2023/09/03 02:56:16;;;;;;;10.13;9.13;;;;;22.30;101432.00;;;;2077474;28;20221;-69
2023/09/03 02:57:16;;;;;;;10.93;9.80;;;;;22.30;101432.00;;;;2095568;28;20317;-69
2023/09/03 02:58:16;;;;;;;10.20;9.20;;;;;22.30;101444.00;;;;2096329;28;20231;-69
2023/09/03 02:59:17;;;;;;;11.60;10.43;;;;;22.30;101427.00;;;;2101252;28;20211;-69
2023/09/03 03:00:18;;;;;;;10.60;9.50;;;;;22.30;101431.00;;;;2094896;28;20242;-69
2023/09/03 03:01:19;;;;;;;11.38;10.27;;;;;22.30;101430.00;;;;2087813;28;20227;-69
2023/09/03 03:02:20;;;;;;;11.18;9.98;;;;;22.30;101424.00;;;;2094733;28;20298;-69
2023/09/03 03:03:20;;;;;;;10.68;9.68;;;;;22.30;101405.00;;;;2087982;28;20220;-69
2023/09/03 03:04:21;;;;;;;11.20;10.17;;;;;22.30;101416.00;;;;2100218;28;20222;-69
2023/09/03 03:05:22;;;;;;;10.60;9.70;;;;;22.30;101409.00;;;;2096554;28;20213;-69
2023/09/03 03:06:22;;;;;;;9.43;8.63;;;;;22.30;101416.00;;;;2067103;28;20217;-69
2023/09/03 03:07:22;;;;;;;10.10;9.20;;;;;22.30;101415.00;;;;2090862;28;20274;-69
2023/09/03 03:08:23;;;;;;;10.73;9.70;;;;;22.30;101416.00;;;;2096638;28;20216;-69
2023/09/03 03:09:23;;;;;;;11.03;9.70;;;;;22.30;101418.00;;;;2097332;28;20211;-69
2023/09/03 03:10:24;;;;;;;10.60;9.50;;;;;22.30;101417.00;;;;2097400;28;20228;-69
2023/09/03 03:11:25;;;;;;;10.13;9.13;;;;;22.30;101419.00;;;;2095339;28;20249;-69
2023/09/03 03:12:25;;;;;;;10.48;9.57;;;;;22.30;101407.00;;;;2100133;28;20834;-69
2023/09/03 03:13:26;;;;;;;11.17;10.17;;;;;22.30;101423.00;;;;2098410;28;20235;-69
2023/09/03 03:14:26;;;;;;;10.40;9.40;;;;;22.30;101404.00;;;;2096344;28;20208;-69
2023/09/03 03:15:26;;;;;;;11.37;10.27;;;;;22.30;101415.00;;;;2090198;28;20224;-69
2023/09/03 03:16:27;;;;;;;10.00;8.97;;;;;22.30;101409.00;;;;2077768;28;20216;-69
2023/09/03 03:17:27;;;;;;;10.20;9.20;;;;;22.30;101404.00;;;;2089019;28;20233;-69
2023/09/03 03:18:27;;;;;;;10.43;9.43;;;;;22.30;101405.00;;;;2104906;28;20268;-69
2023/09/03 03:19:28;;;;;;;10.47;9.40;;;;;22.30;101400.00;;;;2095681;28;20212;-69
2023/09/03 03:20:28;;;;;;;9.90;9.00;;;;;22.30;101398.00;;;;2097560;28;20210;-69
2023/09/03 03:21:28;;;;;;;10.23;9.30;;;;;22.30;101395.00;;;;2092370;28;20212;-69
2023/09/03 03:22:29;;;;;;;10.70;9.70;;;;;22.30;101387.00;;;;2097705;28;20265;-69
2023/09/03 03:23:29;;;;;;;11.57;10.17;;;;;22.30;101388.00;;;;2104490;28;20207;-69
2023/09/03 03:24:30;;;;;;;10.80;9.80;;;;;22.30;101400.00;;;;2098452;28;20239;-69
2023/09/03 03:25:30;;;;;;;11.27;10.00;;;;;22.30;101389.00;;;;2100588;28;20220;-69
2023/09/03 03:26:31;;;;;;;10.33;9.37;;;;;22.30;101352.00;;;;2090157;28;20224;-69
2023/09/03 03:27:31;;;;;;;11.27;10.17;;;;;22.30;101394.00;;;;2087946;28;20232;-69
2023/09/03 03:28:33;;;;;;;10.60;9.50;;;;;22.30;101387.00;;;;2081799;28;20444;-69
2023/09/03 03:29:33;;;;;;;9.70;8.80;;;;;22.30;101393.00;;;;2096159;28;20778;-69
2023/09/03 03:30:33;;;;;;;10.30;9.40;;;;;22.30;101390.00;;;;2100154;28;20249;-69
2023/09/03 03:31:34;;;;;;;10.17;9.07;;;;;22.30;101395.00;;;;2086863;28;20224;-69
2023/09/03 03:32:34;;;;;;;9.57;8.73;;;;;22.30;101391.00;;;;2093967;28;20608;-69
2023/09/03 03:33:35;;;;;;;9.90;9.00;;;;;22.30;101384.00;;;;2094444;28;20211;-69
2023/09/03 03:34:35;;;;;;;10.93;9.93;;;;;22.30;101397.00;;;;2104066;28;20208;-69
2023/09/03 03:35:36;;;;;;;10.43;8.90;;;;;22.30;101388.00;;;;2102548;28;20757;-69
2023/09/03 03:36:36;;;;;;;10.50;9.40;;;;;22.30;101389.00;;;;2094928;28;20700;-69
2023/09/03 03:37:37;;;;;;;10.90;9.90;;;;;22.30;101388.00;;;;2103783;28;20207;-69
2023/09/03 03:38:37;;;;;;;10.90;9.80;;;;;22.30;101384.00;;;;2102787;28;20231;-69
2023/09/03 03:39:37;;;;;;;12.60;9.93;;;;;22.30;101380.00;;;;2104732;28;20215;-69
2023/09/03 03:40:37;;;;;;;9.77;8.87;;;;;22.30;101382.00;;;;2100554;28;20207;-69
2023/09/03 03:41:38;;;;;;;9.80;8.90;;;;;22.30;101382.00;;;;2089367;28;20222;-69
2023/09/03 03:42:39;;;;;;;9.80;8.90;;;;;22.30;101388.00;;;;2097441;28;20232;-69
2023/09/03 03:43:40;;;;;;;9.27;8.43;;;;;22.30;101379.00;;;;2098688;28;20470;-68
2023/09/03 03:44:41;;;;;;;10.57;9.48;;;;;22.30;101383.00;;;;2104615;28;20265;-69
2023/09/03 03:45:41;;;;;;;10.43;9.40;;;;;22.30;101386.00;;;;2099565;28;20273;-69
2023/09/03 03:46:41;;;;;;;9.40;8.40;;;;;22.30;101392.00;;;;2091405;28;20248;-69
2023/09/03 03:47:42;;;;;;;10.47;9.50;;;;;22.30;101392.00;;;;2102621;28;20258;-69
2023/09/03 03:48:42;;;;;;;9.77;8.77;;;;;22.30;101395.00;;;;2097015;28;20200;-69
2023/09/03 03:49:43;;;;;;;10.90;9.83;;;;;22.30;101401.00;;;;2098361;28;20291;-69
2023/09/03 03:50:43;;;;;;;10.00;9.10;;;;;22.30;101402.00;;;;2104080;28;20207;-69
2023/09/03 03:51:43;;;;;;;9.00;8.20;;;;;22.30;101404.00;;;;2089859;28;20246;-69
2023/09/03 03:52:44;;;;;;;8.80;8.00;;;;;22.20;101401.00;;;;2098656;28;20208;-69
2023/09/03 03:53:44;;;;;;;9.87;8.93;;;;;22.30;101404.00;;;;2099127;28;20204;-69
2023/09/03 03:54:44;;;;;;;8.80;8.00;;;;;22.30;101404.00;;;;2098468;28;20231;-69
2023/09/03 03:55:44;;;;;;;8.87;8.07;;;;;22.30;101413.00;;;;2098223;28;20204;-69
2023/09/03 03:56:45;;;;;;;9.40;8.50;;;;;22.30;101406.00;;;;2088658;28;20274;-69
2023/09/03 03:57:45;;;;;;;8.90;8.10;;;;;22.20;101409.00;;;;2098871;28;20235;-69
2023/09/03 03:58:45;;;;;;;10.80;9.20;;;;;22.30;101409.00;;;;2102750;28;20200;-69
2023/09/03 03:59:46;;;;;;;9.90;8.90;;;;;22.30;101411.00;;;;2098849;28;20327;-69
2023/09/03 04:00:46;;;;;;;8.83;8.03;;;;;22.30;101409.00;;;;2102548;28;20230;-69
2023/09/03 04:01:46;;;;;;;9.47;8.67;;;;;22.30;101416.00;;;;2086355;28;20212;-69
2023/09/03 04:02:47;;;;;;;9.33;8.43;;;;;22.30;101412.00;;;;2099122;28;20213;-69
2023/09/03 04:03:48;;;;;;;9.10;8.23;;;;;22.30;101413.00;;;;2103125;28;20932;-69
2023/09/03 04:04:52;;;;;;;9.15;8.25;;;;;22.30;101413.00;;;;2099161;28;20357;-69
2023/09/03 04:05:56;;;;;;;9.10;8.20;;;;;22.30;101419.00;;;;2104628;28;20223;-69
2023/09/03 04:06:57;;;;;;;9.60;8.65;;;;;22.20;101424.00;;;;2087680;28;20537;-69
2023/09/03 04:07:57;;;;;;;9.33;8.43;;;;;22.20;101415.00;;;;2103503;28;20258;-69
2023/09/03 04:08:57;;;;;;;8.43;7.63;;;;;22.20;101417.00;;;;2091204;28;20224;-69
2023/09/03 04:09:59;;;;;;;8.80;8.00;;;;;22.20;101418.00;;;;2091688;28;20357;-69
2023/09/03 04:11:01;;;;;;;9.05;7.93;;;;;22.20;101421.00;;;;2098327;28;20219;-69
2023/09/03 04:12:01;;;;;;;8.82;8.02;;;;;22.30;101428.00;;;;2089592;28;20689;-69
2023/09/03 04:13:01;;;;;;;8.33;7.53;;;;;22.30;101419.00;;;;2100937;28;20345;-69
2023/09/03 04:14:02;;;;;;;9.20;8.30;;;;;22.30;101423.00;;;;2098150;28;20247;-69
2023/09/03 04:15:02;;;;;;;8.80;8.00;;;;;22.20;101427.00;;;;2100748;28;20207;-69
2023/09/03 04:16:15;;;;;;;9.00;8.10;;;;;22.20;101430.00;;;;2097838;28;20216;-69
2023/09/03 04:17:16;;;;;;;10.07;9.10;;;;;22.20;101433.00;;;;2098980;28;20228;-69
2023/09/03 04:18:16;;;;;;;9.47;8.33;;;;;22.20;101439.00;;;;2095962;28;20216;-69
2023/09/03 04:19:16;;;;;;;9.27;8.47;;;;;22.20;101448.00;;;;2096016;28;20254;-69
2023/09/03 04:20:17;;;;;;;8.77;7.63;;;;;22.20;101441.00;;;;2095154;28;20255;-69
2023/09/03 04:21:17;;;;;;;10.00;9.10;;;;;22.30;101443.00;;;;2093044;28;20207;-69
2023/09/03 04:22:18;;;;;;;8.77;7.97;;;;;22.30;101453.00;;;;2098223;28;20243;-69
2023/09/03 04:23:18;;;;;;;8.50;7.70;;;;;22.20;101455.00;;;;2096191;28;20216;-69
2023/09/03 04:24:18;;;;;;;8.50;7.70;;;;;22.20;101452.00;;;;2103258;28;20211;-69
2023/09/03 04:25:19;;;;;;;8.17;7.40;;;;;22.20;101458.00;;;;2097553;28;20216;-69
2023/09/03 04:26:19;;;;;;;8.37;7.57;;;;;22.20;101455.00;;;;2086130;28;20228;-69
2023/09/03 04:27:19;;;;;;;8.70;7.87;;;;;22.20;101462.00;;;;2095804;28;20224;-69
2023/09/03 04:28:20;;;;;;;8.80;8.00;;;;;22.20;101467.00;;;;2102204;28;20215;-69
2023/09/03 04:29:20;;;;;;;7.97;7.27;;;;;22.20;101459.00;;;;2096440;28;20228;-69
2023/09/03 04:30:20;;;;;;;9.30;7.50;;;;;22.20;101468.00;;;;2087368;28;20225;-69
2023/09/03 04:31:21;;;;;;;8.57;7.67;;;;;22.20;101463.00;;;;2084371;28;20274;-69
2023/09/03 04:32:21;;;;;;;8.40;7.70;;;;;22.20;101460.00;;;;2101406;28;20220;-69
2023/09/03 04:33:21;;;;;;;9.07;8.27;;;;;22.20;101469.00;;;;2102270;28;20226;-69
2023/09/03 04:34:22;;;;;;;8.70;7.87;;;;;22.20;101471.00;;;;2102266;28;20220;-69
2023/09/03 04:35:22;;;;;;;10.03;7.93;;;;;22.20;101469.00;;;;2097015;28;20269;-69
2023/09/03 04:36:22;;;;;;;8.77;7.97;;;;;22.20;101476.00;;;;2092498;28;20222;-69
2023/09/03 04:37:23;;;;;;;9.73;8.03;;;;;22.20;101476.00;;;;2100980;28;20586;-69
2023/09/03 04:38:23;;;;;;;8.30;7.50;;;;;22.20;101477.00;;;;2097619;28;20718;-69
2023/09/03 04:39:23;;;;;;;8.57;7.77;;;;;22.20;101476.00;;;;2099658;28;20969;-69
2023/09/03 04:40:24;;;;;;;9.20;8.33;;;;;22.20;101484.00;;;;2103548;28;20265;-69
2023/09/03 04:41:24;;;;;;;8.23;7.43;;;;;22.20;101479.00;;;;2092189;28;20221;-69
2023/09/03 04:42:24;;;;;;;8.10;7.40;;;;;22.20;101482.00;;;;2104344;28;20574;-69
2023/09/03 04:43:26;;;;;;;9.20;8.13;;;;;22.20;101480.00;;;;2099211;28;20667;-69
2023/09/03 04:44:26;;;;;;;10.10;7.70;;;;;22.20;101484.00;;;;2096249;28;20212;-69
2023/09/03 04:45:27;;;;;;;8.90;8.10;;;;;22.20;101384.00;;;;2103933;28;20211;-69
2023/09/03 04:46:27;;;;;;;8.13;7.33;;;;;22.20;101484.00;;;;2077551;28;20228;-69
2023/09/03 04:47:29;;;;;;;8.57;7.73;;;;;22.20;101478.00;;;;2087582;28;20225;-69
2023/09/03 04:48:29;;;;;;;8.00;7.30;;;;;22.20;101486.00;;;;2095705;28;20212;-69
2023/09/03 04:49:30;;;;;;;8.77;7.87;;;;;22.20;101477.00;;;;2096261;28;20216;-69
2023/09/03 04:50:30;;;;;;;8.33;7.53;;;;;22.20;101478.00;;;;2104374;28;20216;-69
2023/09/03 04:51:31;;;;;;;8.80;7.90;;;;;22.20;101475.00;;;;2091816;28;28068;-69
2023/09/03 04:52:31;;;;;;;8.67;7.87;;;;;22.20;101473.00;;;;2096546;28;20216;-68
2023/09/03 04:53:31;;;;;;;8.20;7.47;;;;;22.20;101469.00;;;;2096238;28;20216;-68
2023/09/03 04:54:33;;;;;;;9.23;7.87;;;;;22.20;101464.00;;;;2096204;28;20219;-68
2023/09/03 04:55:33;;;;;;;9.50;8.50;;;;;22.20;101463.00;;;;2102713;28;20215;-68
2023/09/03 04:56:34;;;;;;;9.00;7.93;;;;;22.20;101462.00;;;;2083699;28;20223;-69
2023/09/03 04:57:34;;;;;;;9.90;9.00;;;;;22.20;101457.00;;;;2087327;28;20467;-69
2023/09/03 04:58:34;;;;;;;9.43;8.53;;;;;22.20;101454.00;;;;2087992;28;20212;-69
2023/09/03 04:59:35;;;;;;;8.43;7.63;;;;;22.20;101455.00;;;;2096296;28;20220;-69
2023/09/03 05:00:35;;;;;;;9.40;8.40;;;;;22.20;101453.00;;;;2101432;28;20211;-69